sensor_id;sensor_type;location;lat;lon;timestamp;temperature;humidity
8114;DHT22;4099;52.684;9.918;2023-03-01T00:02:18;-4.90;99.90
8114;DHT22;4099;52.684;9.918;2023-03-01T00:07:20;-5.00;99.90
8114;DHT22;4099;52.684;9.918;2023-03-01T00:12:22;-4.80;99.90
8114;DHT22;4099;52.684;9.918;2023-03-01T00:17:26;-4.70;99.90
8114;DHT22;4099;52.684;9.918;2023-03-01T00:22:29;-4.90;99.90
8114;DHT22;4099;52.684;9.918;2023-03-01T00:27:30;-4.90;99.90
8114;DHT22;4099;52.684;9.918;2023-03-01T00:32:33;-5.00;99.90
8114;DHT22;4099;52.684;9.918;2023-03-01T00:37:36;-5.10;99.90
8114;DHT22;4099;52.684;9.918;2023-03-01T00:42:38;-4.90;99.90
8114;DHT22;4099;52.684;9.918;2023-03-01T00:47:41;-5.10;99.90
8114;DHT22;4099;52.684;9.918;2023-03-01T00:52:43;-5.30;99.90
8114;DHT22;4099;52.684;9.918;2023-03-01T00:57:45;-5.00;99.90
8114;DHT22;4099;52.684;9.918;2023-03-01T01:02:48;-4.80;99.90
8114;DHT22;4099;52.684;9.918;2023-03-01T01:07:50;-5.20;99.90
8114;DHT22;4099;52.684;9.918;2023-03-01T01:12:52;-5.10;99.90
8114;DHT22;4099;52.684;9.918;2023-03-01T01:17:57;-5.10;99.90
8114;DHT22;4099;52.684;9.918;2023-03-01T01:22:58;-5.40;99.90
8114;DHT22;4099;52.684;9.918;2023-03-01T01:28:00;-5.60;99.90
8114;DHT22;4099;52.684;9.918;2023-03-01T01:33:03;-5.30;99.90
8114;DHT22;4099;52.684;9.918;2023-03-01T01:38:05;-5.00;99.90
8114;DHT22;4099;52.684;9.918;2023-03-01T01:43:11;-5.00;99.90
8114;DHT22;4099;52.684;9.918;2023-03-01T01:48:19;-5.30;99.90
8114;DHT22;4099;52.684;9.918;2023-03-01T01:53:21;-5.60;99.90
8114;DHT22;4099;52.684;9.918;2023-03-01T01:58:25;-5.70;99.90
8114;DHT22;4099;52.684;9.918;2023-03-01T02:03:31;-5.60;99.90
8114;DHT22;4099;52.684;9.918;2023-03-01T02:08:39;-5.50;99.90
8114;DHT22;4099;52.684;9.918;2023-03-01T02:13:42;-5.70;99.90
8114;DHT22;4099;52.684;9.918;2023-03-01T02:18:46;-5.80;99.90
8114;DHT22;4099;52.684;9.918;2023-03-01T02:23:48;-5.90;99.90
8114;DHT22;4099;52.684;9.918;2023-03-01T02:28:51;-5.90;99.90
8114;DHT22;4099;52.684;9.918;2023-03-01T02:33:53;-5.90;99.90
8114;DHT22;4099;52.684;9.918;2023-03-01T02:38:57;-6.00;99.90
8114;DHT22;4099;52.684;9.918;2023-03-01T02:44:02;-6.10;99.90
8114;DHT22;4099;52.684;9.918;2023-03-01T02:54:40;-6.20;99.90
8114;DHT22;4099;52.684;9.918;2023-03-01T02:59:45;-6.30;99.90
8114;DHT22;4099;52.684;9.918;2023-03-01T03:04:47;-6.40;99.90
8114;DHT22;4099;52.684;9.918;2023-03-01T03:09:49;-6.40;99.90
8114;DHT22;4099;52.684;9.918;2023-03-01T03:14:53;-6.50;99.90
8114;DHT22;4099;52.684;9.918;2023-03-01T03:19:54;-6.50;99.90
8114;DHT22;4099;52.684;9.918;2023-03-01T03:24:56;-6.40;99.90
8114;DHT22;4099;52.684;9.918;2023-03-01T03:29:59;-6.40;99.90
8114;DHT22;4099;52.684;9.918;2023-03-01T03:35:01;-6.40;99.90
8114;DHT22;4099;52.684;9.918;2023-03-01T03:40:04;-6.20;99.90
8114;DHT22;4099;52.684;9.918;2023-03-01T03:45:17;-6.30;99.90
8114;DHT22;4099;52.684;9.918;2023-03-01T03:50:19;-6.20;99.90
8114;DHT22;4099;52.684;9.918;2023-03-01T03:55:21;-6.30;99.90
8114;DHT22;4099;52.684;9.918;2023-03-01T04:00:24;-6.40;99.90
8114;DHT22;4099;52.684;9.918;2023-03-01T04:05:27;-6.30;99.90
8114;DHT22;4099;52.684;9.918;2023-03-01T04:10:30;-6.30;99.90
8114;DHT22;4099;52.684;9.918;2023-03-01T04:15:35;-6.10;99.90
8114;DHT22;4099;52.684;9.918;2023-03-01T04:20:36;-6.10;99.90
8114;DHT22;4099;52.684;9.918;2023-03-01T04:25:40;-5.80;99.90
8114;DHT22;4099;52.684;9.918;2023-03-01T04:30:44;-6.10;99.90
8114;DHT22;4099;52.684;9.918;2023-03-01T04:35:46;-6.40;99.90
8114;DHT22;4099;52.684;9.918;2023-03-01T04:40:49;-6.40;99.90
8114;DHT22;4099;52.684;9.918;2023-03-01T04:45:53;-6.20;99.90
8114;DHT22;4099;52.684;9.918;2023-03-01T04:50:55;-6.00;99.90
8114;DHT22;4099;52.684;9.918;2023-03-01T04:55:57;-6.00;99.90
8114;DHT22;4099;52.684;9.918;2023-03-01T05:01:00;-6.10;99.90
8114;DHT22;4099;52.684;9.918;2023-03-01T05:06:02;-5.90;99.90
8114;DHT22;4099;52.684;9.918;2023-03-01T05:11:04;-5.90;99.90
8114;DHT22;4099;52.684;9.918;2023-03-01T05:16:10;-6.00;99.90
8114;DHT22;4099;52.684;9.918;2023-03-01T05:21:13;-6.30;99.90
8114;DHT22;4099;52.684;9.918;2023-03-01T05:26:18;-6.20;99.90
8114;DHT22;4099;52.684;9.918;2023-03-01T05:31:23;-6.30;99.90
8114;DHT22;4099;52.684;9.918;2023-03-01T05:36:25;-6.60;99.90
8114;DHT22;4099;52.684;9.918;2023-03-01T05:41:27;-6.70;99.90
8114;DHT22;4099;52.684;9.918;2023-03-01T05:46:30;-6.60;99.90
8114;DHT22;4099;52.684;9.918;2023-03-01T05:51:32;-6.40;99.90
8114;DHT22;4099;52.684;9.918;2023-03-01T05:56:34;-6.60;99.90
8114;DHT22;4099;52.684;9.918;2023-03-01T06:01:38;-6.90;99.90
8114;DHT22;4099;52.684;9.918;2023-03-01T06:06:39;-6.90;99.90
8114;DHT22;4099;52.684;9.918;2023-03-01T06:11:41;-6.70;99.90
8114;DHT22;4099;52.684;9.918;2023-03-01T06:16:44;-6.60;99.90
8114;DHT22;4099;52.684;9.918;2023-03-01T06:21:46;-6.70;99.90
8114;DHT22;4099;52.684;9.918;2023-03-01T06:26:48;-6.80;99.90
8114;DHT22;4099;52.684;9.918;2023-03-01T06:31:51;-6.70;99.90
8114;DHT22;4099;52.684;9.918;2023-03-01T06:36:53;-6.70;99.90
8114;DHT22;4099;52.684;9.918;2023-03-01T06:41:54;-6.70;99.90
8114;DHT22;4099;52.684;9.918;2023-03-01T06:46:58;-6.60;99.90
8114;DHT22;4099;52.684;9.918;2023-03-01T06:52:00;-6.50;99.90
8114;DHT22;4099;52.684;9.918;2023-03-01T06:57:01;-6.50;99.90
8114;DHT22;4099;52.684;9.918;2023-03-01T07:02:04;-6.40;99.90
8114;DHT22;4099;52.684;9.918;2023-03-01T07:07:06;-6.20;99.90
8114;DHT22;4099;52.684;9.918;2023-03-01T07:12:08;-6.10;99.90
8114;DHT22;4099;52.684;9.918;2023-03-01T07:17:12;-6.00;99.90
8114;DHT22;4099;52.684;9.918;2023-03-01T07:22:14;-5.80;99.90
8114;DHT22;4099;52.684;9.918;2023-03-01T07:27:16;-5.70;99.90
8114;DHT22;4099;52.684;9.918;2023-03-01T07:32:19;-5.60;99.90
8114;DHT22;4099;52.684;9.918;2023-03-01T07:37:20;-5.30;99.90
8114;DHT22;4099;52.684;9.918;2023-03-01T07:42:22;-5.10;99.90
8114;DHT22;4099;52.684;9.918;2023-03-01T07:47:25;-4.90;99.90
8114;DHT22;4099;52.684;9.918;2023-03-01T07:52:27;-4.70;99.90
8114;DHT22;4099;52.684;9.918;2023-03-01T07:57:29;-4.40;99.90
8114;DHT22;4099;52.684;9.918;2023-03-01T08:02:33;-4.10;99.90
8114;DHT22;4099;52.684;9.918;2023-03-01T08:07:35;-3.70;99.90
8114;DHT22;4099;52.684;9.918;2023-03-01T08:12:36;-3.30;99.90
8114;DHT22;4099;52.684;9.918;2023-03-01T08:17:39;-2.90;99.90
8114;DHT22;4099;52.684;9.918;2023-03-01T08:22:41;-2.40;99.90
8114;DHT22;4099;52.684;9.918;2023-03-01T08:27:43;-1.80;99.90
8114;DHT22;4099;52.684;9.918;2023-03-01T08:32:46;-1.10;99.90
8114;DHT22;4099;52.684;9.918;2023-03-01T08:37:48;-0.50;99.90
8114;DHT22;4099;52.684;9.918;2023-03-01T08:42:50;0.00;99.90
8114;DHT22;4099;52.684;9.918;2023-03-01T08:47:53;0.20;99.90
8114;DHT22;4099;52.684;9.918;2023-03-01T08:52:55;0.60;99.90
8114;DHT22;4099;52.684;9.918;2023-03-01T08:57:57;0.90;99.90
8114;DHT22;4099;52.684;9.918;2023-03-01T09:03:01;0.90;99.90
8114;DHT22;4099;52.684;9.918;2023-03-01T09:08:03;1.00;99.90
8114;DHT22;4099;52.684;9.918;2023-03-01T09:13:05;1.30;99.90
8114;DHT22;4099;52.684;9.918;2023-03-01T09:18:08;1.70;99.90
8114;DHT22;4099;52.684;9.918;2023-03-01T09:23:09;1.90;99.90
8114;DHT22;4099;52.684;9.918;2023-03-01T09:28:11;2.20;99.90
8114;DHT22;4099;52.684;9.918;2023-03-01T09:33:14;2.60;99.90
8114;DHT22;4099;52.684;9.918;2023-03-01T09:38:16;3.00;99.90
8114;DHT22;4099;52.684;9.918;2023-03-01T09:43:23;3.20;99.90
8114;DHT22;4099;52.684;9.918;2023-03-01T09:48:33;3.50;99.90
8114;DHT22;4099;52.684;9.918;2023-03-01T09:53:36;3.90;99.90
8114;DHT22;4099;52.684;9.918;2023-03-01T09:58:43;4.10;99.90
8114;DHT22;4099;52.684;9.918;2023-03-01T10:04:02;4.40;99.90
8114;DHT22;4099;52.684;9.918;2023-03-01T10:09:11;4.80;99.90
8114;DHT22;4099;52.684;9.918;2023-03-01T10:14:22;5.10;99.90
8114;DHT22;4099;52.684;9.918;2023-03-01T10:19:31;5.20;99.20
8114;DHT22;4099;52.684;9.918;2023-03-01T10:24:35;5.60;98.00
8114;DHT22;4099;52.684;9.918;2023-03-01T10:29:41;5.80;96.00
8114;DHT22;4099;52.684;9.918;2023-03-01T10:34:47;5.50;93.30
8114;DHT22;4099;52.684;9.918;2023-03-01T10:39:58;5.60;96.20
8114;DHT22;4099;52.684;9.918;2023-03-01T10:45:16;6.00;95.50
8114;DHT22;4099;52.684;9.918;2023-03-01T10:50:22;6.40;93.50
8114;DHT22;4099;52.684;9.918;2023-03-01T10:55:35;6.50;92.10
8114;DHT22;4099;52.684;9.918;2023-03-01T11:00:47;6.40;92.40
8114;DHT22;4099;52.684;9.918;2023-03-01T11:06:03;6.90;92.10
8114;DHT22;4099;52.684;9.918;2023-03-01T11:16:26;6.20;90.80
8114;DHT22;4099;52.684;9.918;2023-03-01T11:21:32;6.80;91.60
8114;DHT22;4099;52.684;9.918;2023-03-01T11:26:37;6.70;89.10
8114;DHT22;4099;52.684;9.918;2023-03-01T11:31:40;6.60;90.80
8114;DHT22;4099;52.684;9.918;2023-03-01T11:36:46;7.20;90.30
8114;DHT22;4099;52.684;9.918;2023-03-01T11:41:56;7.30;89.40
8114;DHT22;4099;52.684;9.918;2023-03-01T11:47:28;7.60;90.30
8114;DHT22;4099;52.684;9.918;2023-03-01T11:52:42;7.90;86.20
8114;DHT22;4099;52.684;9.918;2023-03-01T11:58:03;7.80;86.60
8114;DHT22;4099;52.684;9.918;2023-03-01T12:03:20;8.00;88.00
8114;DHT22;4099;52.684;9.918;2023-03-01T12:08:32;8.20;84.40
8114;DHT22;4099;52.684;9.918;2023-03-01T12:14:05;8.20;82.40
8114;DHT22;4099;52.684;9.918;2023-03-01T12:19:27;8.60;81.80
8114;DHT22;4099;52.684;9.918;2023-03-01T12:24:45;9.10;76.00
8114;DHT22;4099;52.684;9.918;2023-03-01T12:29:52;9.70;74.40
8114;DHT22;4099;52.684;9.918;2023-03-01T12:35:25;9.90;78.10
8114;DHT22;4099;52.684;9.918;2023-03-01T12:40:42;10.40;73.10
8114;DHT22;4099;52.684;9.918;2023-03-01T12:46:26;10.50;72.40
8114;DHT22;4099;52.684;9.918;2023-03-01T12:51:33;10.90;65.90
8114;DHT22;4099;52.684;9.918;2023-03-01T12:56:38;11.90;67.10
8114;DHT22;4099;52.684;9.918;2023-03-01T13:01:45;12.40;66.00
8114;DHT22;4099;52.684;9.918;2023-03-01T13:06:58;12.40;60.90
8114;DHT22;4099;52.684;9.918;2023-03-01T13:12:48;12.70;61.20
8114;DHT22;4099;52.684;9.918;2023-03-01T13:17:52;13.80;64.10
8114;DHT22;4099;52.684;9.918;2023-03-01T13:23:09;14.60;57.50
8114;DHT22;4099;52.684;9.918;2023-03-01T13:28:37;15.10;56.30
8114;DHT22;4099;52.684;9.918;2023-03-01T13:33:45;15.80;59.30
8114;DHT22;4099;52.684;9.918;2023-03-01T13:38:55;16.30;52.40
8114;DHT22;4099;52.684;9.918;2023-03-01T13:43:59;16.20;51.50
8114;DHT22;4099;52.684;9.918;2023-03-01T13:49:01;17.10;49.30
8114;DHT22;4099;52.684;9.918;2023-03-01T13:54:03;17.10;43.70
8114;DHT22;4099;52.684;9.918;2023-03-01T13:59:13;17.50;45.70
8114;DHT22;4099;52.684;9.918;2023-03-01T14:04:21;18.10;39.40
8114;DHT22;4099;52.684;9.918;2023-03-01T14:09:27;19.50;42.10
8114;DHT22;4099;52.684;9.918;2023-03-01T14:14:42;20.90;37.30
8114;DHT22;4099;52.684;9.918;2023-03-01T14:19:47;21.90;37.20
8114;DHT22;4099;52.684;9.918;2023-03-01T14:24:54;21.40;34.20
8114;DHT22;4099;52.684;9.918;2023-03-01T14:29:59;22.40;31.50
8114;DHT22;4099;52.684;9.918;2023-03-01T14:35:01;21.90;26.80
8114;DHT22;4099;52.684;9.918;2023-03-01T14:40:05;21.70;29.80
8114;DHT22;4099;52.684;9.918;2023-03-01T14:45:23;21.20;27.20
8114;DHT22;4099;52.684;9.918;2023-03-01T14:50:28;21.20;25.50
8114;DHT22;4099;52.684;9.918;2023-03-01T14:55:32;19.70;26.20
8114;DHT22;4099;52.684;9.918;2023-03-01T15:00:37;17.50;25.10
8114;DHT22;4099;52.684;9.918;2023-03-01T15:05:40;15.90;25.70
8114;DHT22;4099;52.684;9.918;2023-03-01T15:10:56;15.60;28.20
8114;DHT22;4099;52.684;9.918;2023-03-01T15:16:06;14.90;26.80
8114;DHT22;4099;52.684;9.918;2023-03-01T15:21:15;14.30;27.40
8114;DHT22;4099;52.684;9.918;2023-03-01T15:26:29;14.40;27.90
8114;DHT22;4099;52.684;9.918;2023-03-01T15:31:35;14.80;28.10
8114;DHT22;4099;52.684;9.918;2023-03-01T15:36:44;16.50;28.60
8114;DHT22;4099;52.684;9.918;2023-03-01T15:41:47;18.20;29.80
8114;DHT22;4099;52.684;9.918;2023-03-01T15:46:51;18.50;26.00
8114;DHT22;4099;52.684;9.918;2023-03-01T15:51:54;18.70;26.30
8114;DHT22;4099;52.684;9.918;2023-03-01T15:56:56;18.30;26.00
8114;DHT22;4099;52.684;9.918;2023-03-01T16:01:59;17.70;25.80
8114;DHT22;4099;52.684;9.918;2023-03-01T16:07:01;17.10;26.60
8114;DHT22;4099;52.684;9.918;2023-03-01T16:12:03;16.70;27.50
8114;DHT22;4099;52.684;9.918;2023-03-01T16:17:07;15.60;26.50
8114;DHT22;4099;52.684;9.918;2023-03-01T16:22:10;13.20;29.10
8114;DHT22;4099;52.684;9.918;2023-03-01T16:27:12;11.70;31.90
8114;DHT22;4099;52.684;9.918;2023-03-01T16:32:17;10.90;33.50
8114;DHT22;4099;52.684;9.918;2023-03-01T16:37:19;9.50;37.70
8114;DHT22;4099;52.684;9.918;2023-03-01T16:42:22;8.50;40.90
8114;DHT22;4099;52.684;9.918;2023-03-01T16:47:25;7.70;43.60
8114;DHT22;4099;52.684;9.918;2023-03-01T16:52:27;6.90;46.50
8114;DHT22;4099;52.684;9.918;2023-03-01T16:57:29;6.40;50.10
8114;DHT22;4099;52.684;9.918;2023-03-01T17:02:33;5.90;52.20
8114;DHT22;4099;52.684;9.918;2023-03-01T17:07:34;5.50;56.30
8114;DHT22;4099;52.684;9.918;2023-03-01T17:12:37;5.10;60.70
8114;DHT22;4099;52.684;9.918;2023-03-01T17:17:40;4.60;68.90
8114;DHT22;4099;52.684;9.918;2023-03-01T17:22:42;4.30;76.30
8114;DHT22;4099;52.684;9.918;2023-03-01T17:27:44;3.90;87.90
8114;DHT22;4099;52.684;9.918;2023-03-01T17:32:47;3.80;92.20
8114;DHT22;4099;52.684;9.918;2023-03-01T17:37:49;3.30;95.40
8114;DHT22;4099;52.684;9.918;2023-03-01T17:42:51;2.90;98.40
8114;DHT22;4099;52.684;9.918;2023-03-01T17:47:54;2.70;99.90
8114;DHT22;4099;52.684;9.918;2023-03-01T17:52:56;2.60;99.90
8114;DHT22;4099;52.684;9.918;2023-03-01T17:57:58;2.60;99.90
8114;DHT22;4099;52.684;9.918;2023-03-01T18:03:01;2.50;99.90
8114;DHT22;4099;52.684;9.918;2023-03-01T18:08:03;2.50;99.90
8114;DHT22;4099;52.684;9.918;2023-03-01T18:13:05;2.40;99.90
8114;DHT22;4099;52.684;9.918;2023-03-01T18:18:08;2.10;99.90
8114;DHT22;4099;52.684;9.918;2023-03-01T18:23:10;1.70;99.90
8114;DHT22;4099;52.684;9.918;2023-03-01T18:28:12;1.40;99.90
8114;DHT22;4099;52.684;9.918;2023-03-01T18:33:15;1.40;99.90
8114;DHT22;4099;52.684;9.918;2023-03-01T18:38:17;1.20;99.90
8114;DHT22;4099;52.684;9.918;2023-03-01T18:43:19;1.10;99.90
8114;DHT22;4099;52.684;9.918;2023-03-01T18:48:23;0.80;99.90
8114;DHT22;4099;52.684;9.918;2023-03-01T18:53:24;0.60;99.90
8114;DHT22;4099;52.684;9.918;2023-03-01T18:58:27;0.60;99.90
8114;DHT22;4099;52.684;9.918;2023-03-01T19:03:30;0.80;99.90
8114;DHT22;4099;52.684;9.918;2023-03-01T19:08:32;0.70;99.90
8114;DHT22;4099;52.684;9.918;2023-03-01T19:13:35;0.60;99.90
8114;DHT22;4099;52.684;9.918;2023-03-01T19:18:41;0.40;99.90
8114;DHT22;4099;52.684;9.918;2023-03-01T19:23:44;0.20;99.90
8114;DHT22;4099;52.684;9.918;2023-03-01T19:28:47;-0.10;99.90
8114;DHT22;4099;52.684;9.918;2023-03-01T19:33:51;-0.30;99.90
8114;DHT22;4099;52.684;9.918;2023-03-01T19:38:53;-0.60;99.90
8114;DHT22;4099;52.684;9.918;2023-03-01T19:43:55;-0.80;99.90
8114;DHT22;4099;52.684;9.918;2023-03-01T19:48:59;-0.70;99.90
8114;DHT22;4099;52.684;9.918;2023-03-01T19:54:03;-0.30;99.90
8114;DHT22;4099;52.684;9.918;2023-03-01T19:59:05;-0.30;99.90
8114;DHT22;4099;52.684;9.918;2023-03-01T20:04:08;-0.80;99.90
8114;DHT22;4099;52.684;9.918;2023-03-01T20:09:10;-1.10;99.90
8114;DHT22;4099;52.684;9.918;2023-03-01T20:14:13;-1.20;99.90
8114;DHT22;4099;52.684;9.918;2023-03-01T20:19:16;-1.20;99.90
8114;DHT22;4099;52.684;9.918;2023-03-01T20:24:18;-1.30;99.90
8114;DHT22;4099;52.684;9.918;2023-03-01T20:29:19;-1.40;99.90
8114;DHT22;4099;52.684;9.918;2023-03-01T20:34:22;-1.30;99.90
8114;DHT22;4099;52.684;9.918;2023-03-01T20:39:24;-1.20;99.90
8114;DHT22;4099;52.684;9.918;2023-03-01T20:44:26;-1.30;99.90
8114;DHT22;4099;52.684;9.918;2023-03-01T20:49:29;-1.50;99.90
8114;DHT22;4099;52.684;9.918;2023-03-01T20:54:31;-1.50;99.90
8114;DHT22;4099;52.684;9.918;2023-03-01T20:59:33;-1.50;99.90
8114;DHT22;4099;52.684;9.918;2023-03-01T21:04:38;-1.50;99.90
8114;DHT22;4099;52.684;9.918;2023-03-01T21:09:40;-1.50;99.90
8114;DHT22;4099;52.684;9.918;2023-03-01T21:14:44;-1.70;99.90
8114;DHT22;4099;52.684;9.918;2023-03-01T21:19:48;-2.00;99.90
8114;DHT22;4099;52.684;9.918;2023-03-01T21:24:50;-2.20;99.90
8114;DHT22;4099;52.684;9.918;2023-03-01T21:29:52;-2.10;99.90
8114;DHT22;4099;52.684;9.918;2023-03-01T21:34:55;-2.00;99.90
8114;DHT22;4099;52.684;9.918;2023-03-01T21:39:58;-1.60;99.90
8114;DHT22;4099;52.684;9.918;2023-03-01T21:45:00;-1.80;99.90
8114;DHT22;4099;52.684;9.918;2023-03-01T21:50:04;-2.20;99.90
8114;DHT22;4099;52.684;9.918;2023-03-01T21:55:09;-2.20;99.90
8114;DHT22;4099;52.684;9.918;2023-03-01T22:00:13;-2.00;99.90
8114;DHT22;4099;52.684;9.918;2023-03-01T22:05:17;-2.20;99.90
8114;DHT22;4099;52.684;9.918;2023-03-01T22:10:19;-2.30;99.90
8114;DHT22;4099;52.684;9.918;2023-03-01T22:15:27;-2.50;99.90
8114;DHT22;4099;52.684;9.918;2023-03-01T22:20:30;-2.60;99.90
8114;DHT22;4099;52.684;9.918;2023-03-01T22:25:32;-2.60;99.90
8114;DHT22;4099;52.684;9.918;2023-03-01T22:30:34;-2.60;99.90
8114;DHT22;4099;52.684;9.918;2023-03-01T22:35:41;-2.70;99.90
8114;DHT22;4099;52.684;9.918;2023-03-01T22:40:43;-2.70;99.90
8114;DHT22;4099;52.684;9.918;2023-03-01T22:45:45;-2.80;99.90
8114;DHT22;4099;52.684;9.918;2023-03-01T22:50:48;-2.90;99.90
8114;DHT22;4099;52.684;9.918;2023-03-01T22:55:50;-2.80;99.90
8114;DHT22;4099;52.684;9.918;2023-03-01T23:00:52;-2.80;99.90
8114;DHT22;4099;52.684;9.918;2023-03-01T23:05:55;-2.80;99.90
8114;DHT22;4099;52.684;9.918;2023-03-01T23:10:57;-2.90;99.90
8114;DHT22;4099;52.684;9.918;2023-03-01T23:15:59;-2.90;99.90
8114;DHT22;4099;52.684;9.918;2023-03-01T23:21:08;-2.90;99.90
8114;DHT22;4099;52.684;9.918;2023-03-01T23:26:10;-2.80;99.90
8114;DHT22;4099;52.684;9.918;2023-03-01T23:31:13;-2.80;99.90
8114;DHT22;4099;52.684;9.918;2023-03-01T23:36:19;-2.80;99.90
8114;DHT22;4099;52.684;9.918;2023-03-01T23:41:24;-2.60;99.90
8114;DHT22;4099;52.684;9.918;2023-03-01T23:46:27;-2.40;99.90
8114;DHT22;4099;52.684;9.918;2023-03-01T23:51:31;-2.40;99.90
8114;DHT22;4099;52.684;9.918;2023-03-01T23:56:35;-2.40;99.90
